EDT,Max TemperatureF,Mean TemperatureF,Min TemperatureF,Max Dew PointF,MeanDew PointF,Min DewpointF,Max Humidity, Mean Humidity, Min Humidity, Max Sea Level PressureIn, Mean Sea Level PressureIn, Min Sea Level PressureIn, Max VisibilityMiles, Mean VisibilityMiles, Min VisibilityMiles, Max Wind SpeedMPH, Mean Wind SpeedMPH, Max Gust SpeedMPH,PrecipitationIn, CloudCover, Events, WindDirDegrees
2012-8-1,82,75,68,70,67,64,90,79,62,29.91,29.87,29.83,10,7,3,7,3,,0.00,4,Thunderstorm,121
2012-8-2,87,76,64,70,67,63,100,81,49,29.94,29.90,29.86,10,5,0,13,2,18,0.00,2,Fog,206
2012-8-3,89,79,69,74,69,66,93,78,53,30.09,30.00,29.93,10,5,1,12,2,,0.00,0,Thunderstorm,129
2012-8-4,89,79,71,75,71,66,94,79,57,30.19,30.14,30.09,10,6,2,9,5,21,0.00,4,Rain-Thunderstorm,121
2012-8-5,93,82,73,73,71,68,94,80,48,30.15,30.06,29.98,10,7,0,40,10,51,0.61,4,Fog-Rain-Thunderstorm,220
2012-8-6,86,80,70,72,67,63,93,71,49,30.07,30.02,29.98,10,9,3,15,5,18,0.00,2,Rain,294
2012-8-7,84,74,64,66,63,60,90,69,47,30.03,29.99,29.96,10,10,6,8,2,,0.00,0,,141
2012-8-8,86,76,66,72,66,64,94,76,49,30.01,29.97,29.93,10,5,1,8,2,,0.00,1,,171
2012-8-9,89,78,68,71,68,65,90,77,53,29.97,29.92,29.85,10,6,2,14,3,17,0.08,1,Rain-Thunderstorm,152
2012-8-10,82,76,70,72,69,66,94,84,65,29.85,29.79,29.73,10,6,1,12,4,,0.14,5,Rain,184
2012-8-11,84,78,71,70,66,62,91,74,51,29.92,29.84,29.78,10,9,6,13,3,18,0.00,4,,243
2012-8-12,82,72,64,61,60,58,81,64,47,30.00,29.96,29.92,10,10,10,9,5,,0.00,3,,279
2012-8-13,84,72,61,63,59,57,90,65,41,30.05,30.00,29.96,10,9,6,7,3,,0.00,0,,298
2012-8-14,81,74,66,70,67,61,93,84,69,29.97,29.92,29.86,10,5,1,14,4,22,0.15,5,Rain-Thunderstorm,88
2012-8-15,80,72,66,68,66,64,100,84,62,29.92,29.88,29.83,10,5,0,22,7,33,0.03,4,Fog-Rain-Thunderstorm,292
2012-8-16,82,73,64,64,62,58,93,70,45,29.98,29.93,29.89,10,8,4,10,6,,0.01,0,,299
2012-8-17,86,74,62,68,64,60,94,76,48,29.91,29.85,29.78,10,6,2,16,4,23,0.01,2,Rain-Thunderstorm,273
2012-8-18,80,71,62,65,58,53,87,66,40,29.95,29.90,29.87,10,10,7,9,5,,0.01,3,,346
2012-8-19,75,64,55,60,56,53,90,73,52,29.99,29.95,29.92,10,10,7,7,2,,0.01,2,,103
2012-8-20,79,70,61,62,60,57,94,80,50,29.97,29.91,29.85,10,8,2,17,4,21,0.00,6,Rain,235
2012-8-21,80,70,60,62,59,55,97,83,45,30.11,30.04,29.98,10,4,0,7,3,,0.00,3,Fog,299
2012-8-22,82,69,57,62,58,55,100,75,47,30.17,30.13,30.09,10,6,2,6,1,,0.00,1,,176
2012-8-23,100,80,60,64,59,54,94,65,22,30.18,30.15,30.11,10,6,2,6,1,,0.00,0,,254
2012-8-24,84,78,70,64,61,56,81,57,38,30.19,30.16,30.14,10,6,2,6,1,,0.00,0,,97
2012-8-25,79,71,64,67,64,61,90,77,62,30.24,30.22,30.18,9,6,2,8,4,,0.10,2,Rain,86
2012-8-26,82,73,66,68,65,61,90,81,54,30.27,30.23,30.19,10,10,10,12,7,17,0.00,5,,99
2012-8-27,86,75,66,70,67,63,94,77,51,30.18,30.09,29.95,10,9,4,9,3,,0.00,4,,219
2012-8-28,86,77,66,70,65,57,94,70,40,29.94,29.91,29.87,10,8,2,15,6,21,0.12,3,Rain,289
2012-8-29,81,70,61,59,57,54,87,64,40,30.04,29.99,29.93,10,10,9,10,3,,0.00,0,,313
2012-8-30,84,68,55,58,55,52,87,63,35,30.13,30.09,30.05,10,10,8,9,2,,0.00,0,,290
2012-8-31,90,73,57,64,59,55,93,65,34,30.11,30.05,29.97,10,8,2,14,3,20,0.00,0,,276